createdAt,value
2018-03-21T00:01:29.861Z,59.44
2018-03-21T00:03:57.946Z,59.78
2018-03-21T00:06:25.422Z,58.98
2018-03-21T00:08:52.898Z,58.96
2018-03-21T00:11:20.525Z,61.59
2018-03-21T00:13:47.974Z,60.71
2018-03-21T00:16:15.435Z,60.48
2018-03-21T00:18:43.318Z,61.24
2018-03-21T00:21:10.794Z,61.31
2018-03-21T00:23:38.257Z,59.32
2018-03-21T00:26:06.006Z,58.53
2018-03-21T00:28:33.474Z,59.49
2018-03-21T00:31:00.947Z,59.77
2018-03-21T00:33:28.713Z,60.79
2018-03-21T00:35:56.181Z,60.79
2018-03-21T00:38:23.649Z,62.17
2018-03-21T00:40:51.395Z,61.14
2018-03-21T00:43:18.856Z,60.25
2018-03-21T00:45:46.315Z,59.62
2018-03-21T00:48:14.938Z,58.72
2018-03-21T00:50:42.423Z,58.03
2018-03-21T00:53:09.879Z,58.25
2018-03-21T00:55:37.674Z,59.25
2018-03-21T00:58:05.151Z,59.85
2018-03-21T01:00:32.610Z,59.80
2018-03-21T01:03:00.254Z,60.30
2018-03-21T01:05:29.206Z,60.72
2018-03-21T01:07:56.663Z,62.30
2018-03-21T01:10:24.509Z,62.08
2018-03-21T01:12:51.977Z,61.72
2018-03-21T01:15:19.436Z,62.56
2018-03-21T01:17:47.091Z,63.57
2018-03-21T01:20:14.560Z,63.30
2018-03-21T01:22:42.025Z,62.37
2018-03-21T01:25:09.666Z,62.60
2018-03-21T01:27:37.117Z,61.49
2018-03-21T01:30:04.587Z,61.05
2018-03-21T01:32:32.354Z,58.78
2018-03-21T01:34:59.809Z,58.13
2018-03-21T01:37:27.268Z,58.15
2018-03-21T01:39:55.030Z,57.53
2018-03-21T01:42:22.507Z,57.93
2018-03-21T01:44:49.964Z,57.85
2018-03-21T01:47:18.038Z,57.33
2018-03-21T01:49:47.710Z,58.39
2018-03-21T01:52:15.169Z,58.90
2018-03-21T01:54:42.874Z,58.62
2018-03-21T01:57:10.337Z,60.11
2018-03-21T01:59:37.809Z,61.86
2018-03-21T02:02:05.857Z,63.08
2018-03-21T02:04:33.312Z,61.44
2018-03-21T02:07:00.784Z,61.45
2018-03-21T02:09:28.417Z,60.76
2018-03-21T02:11:55.885Z,60.32
2018-03-21T02:14:23.342Z,58.43
2018-03-21T02:16:51.225Z,59.10
2018-03-21T02:19:18.697Z,59.12
2018-03-21T02:21:46.146Z,58.30
2018-03-21T02:24:13.913Z,59.37
2018-03-21T02:26:41.428Z,58.93
2018-03-21T02:29:08.851Z,58.84
2018-03-21T02:31:37.450Z,56.05
2018-03-21T02:34:04.910Z,57.00
2018-03-21T02:36:32.373Z,56.67
2018-03-21T02:39:00.671Z,57.55
2018-03-21T02:41:28.132Z,59.72
2018-03-21T02:43:55.593Z,58.69
2018-03-21T02:46:23.530Z,59.25
2018-03-21T02:48:50.994Z,58.88
2018-03-21T02:51:18.828Z,56.90
2018-03-21T02:53:46.506Z,57.95
2018-03-21T02:56:13.978Z,59.06
2018-03-21T02:58:41.443Z,58.92
2018-03-21T03:01:09.496Z,58.70
2018-03-21T03:03:36.958Z,56.52
2018-03-21T03:06:04.930Z,56.26
2018-03-21T03:08:32.812Z,57.52
2018-03-21T03:11:00.311Z,55.77
2018-03-21T03:13:27.783Z,56.52
2018-03-21T03:15:56.111Z,57.58
2018-03-21T03:18:23.575Z,55.97
2018-03-21T03:20:51.043Z,56.04
2018-03-21T03:23:18.796Z,55.08
2018-03-21T03:25:46.266Z,55.46
2018-03-21T03:28:13.717Z,54.40
2018-03-21T03:30:41.835Z,54.36
2018-03-21T03:33:09.296Z,53.85
2018-03-21T03:35:36.756Z,52.41
2018-03-21T03:38:04.777Z,51.51
2018-03-21T03:40:32.231Z,51.44
2018-03-21T03:42:59.685Z,53.66
2018-03-21T03:45:27.489Z,52.80
2018-03-21T03:47:54.953Z,53.77
2018-03-21T03:50:22.413Z,54.16
2018-03-21T03:52:50.789Z,56.09
2018-03-21T03:55:18.258Z,56.31
2018-03-21T03:57:45.727Z,56.77
2018-03-21T04:00:13.370Z,56.46
2018-03-21T04:02:40.825Z,57.06
2018-03-21T04:05:08.320Z,55.11
2018-03-21T04:07:36.143Z,54.42
2018-03-21T04:10:03.609Z,56.82
2018-03-21T04:12:31.074Z,56.56
2018-03-21T04:14:58.840Z,55.85
2018-03-21T04:17:26.294Z,54.67
2018-03-21T04:19:53.761Z,56.09
2018-03-21T04:22:21.830Z,53.04
2018-03-21T04:24:49.293Z,56.20
2018-03-21T04:27:16.761Z,55.81
2018-03-21T04:29:44.520Z,54.24
2018-03-21T04:32:11.977Z,55.44
2018-03-21T04:34:39.457Z,55.84
2018-03-21T04:37:07.205Z,55.27
2018-03-21T04:39:34.669Z,55.27
2018-03-21T04:42:02.145Z,56.24
2018-03-21T04:44:29.792Z,56.40
2018-03-21T04:46:57.262Z,55.60
2018-03-21T04:49:24.721Z,56.23
2018-03-21T04:51:52.577Z,56.23
2018-03-21T04:54:20.418Z,55.83
2018-03-21T04:56:47.886Z,56.54
2018-03-21T04:59:16.144Z,55.44
2018-03-21T05:01:43.602Z,56.77
2018-03-21T05:04:11.065Z,55.73
2018-03-21T05:06:38.874Z,56.03
2018-03-21T05:09:06.334Z,57.65
2018-03-21T05:11:33.797Z,56.87
2018-03-21T05:14:01.551Z,56.88
2018-03-21T05:16:29.015Z,58.97
2018-03-21T05:18:56.483Z,59.91
2018-03-21T05:21:24.250Z,59.45
2018-03-21T05:23:51.709Z,59.87
2018-03-21T05:26:19.166Z,61.24
2018-03-21T05:28:46.932Z,62.28
2018-03-21T05:31:14.394Z,61.93
2018-03-21T05:33:41.867Z,63.24
2018-03-21T05:36:09.615Z,61.00
2018-03-21T05:38:37.072Z,61.81
2018-03-21T05:41:04.532Z,63.11
2018-03-21T05:43:32.309Z,62.25
2018-03-21T05:45:59.776Z,63.17
2018-03-21T05:48:27.238Z,62.21
2018-03-21T05:50:54.989Z,61.82
2018-03-21T05:53:22.454Z,60.21
2018-03-21T05:55:50.300Z,62.37
2018-03-21T05:58:18.295Z,62.54
2018-03-21T06:00:45.758Z,62.48
2018-03-21T06:03:13.219Z,62.51
2018-03-21T06:05:40.878Z,63.90
2018-03-21T06:08:08.344Z,63.30
2018-03-21T06:10:35.810Z,63.46
2018-03-21T06:13:03.410Z,62.46
2018-03-21T06:15:30.866Z,63.82
2018-03-21T06:17:58.326Z,67.11
2018-03-21T06:20:26.056Z,65.11
2018-03-21T06:22:53.508Z,65.55
2018-03-21T06:25:20.995Z,66.23
2018-03-21T06:27:48.744Z,67.40
2018-03-21T06:30:16.205Z,68.19
2018-03-21T06:32:43.660Z,69.88
2018-03-21T06:35:11.419Z,67.54
2018-03-21T06:37:38.894Z,67.55
2018-03-21T06:40:06.348Z,65.53
2018-03-21T06:42:34.123Z,65.83
2018-03-21T06:48:32.700Z,66.56
2018-03-21T06:51:00.157Z,66.58
2018-03-21T06:53:27.618Z,64.39
2018-03-21T06:55:55.312Z,62.84
2018-03-21T06:58:22.803Z,65.88
2018-03-21T07:00:50.256Z,64.84
2018-03-21T07:03:18.305Z,65.70
2018-03-21T07:05:45.773Z,67.43
2018-03-21T07:08:13.239Z,66.17
2018-03-21T07:10:40.989Z,64.68
2018-03-21T07:13:08.448Z,64.58
2018-03-21T07:15:48.169Z,65.36
2018-03-21T07:18:15.635Z,64.54
2018-03-21T07:20:43.093Z,68.43
2018-03-21T07:23:10.902Z,69.21
2018-03-21T07:25:38.389Z,69.07
2018-03-21T07:28:05.860Z,67.35
2018-03-21T07:30:33.874Z,67.40
2018-03-21T07:33:01.337Z,68.86
2018-03-21T07:35:28.803Z,68.63
2018-03-21T07:37:56.560Z,65.39
2018-03-21T07:40:24.037Z,62.17
2018-03-21T07:42:51.488Z,63.69
2018-03-21T07:45:19.255Z,61.39
2018-03-21T07:47:46.730Z,62.52
2018-03-21T07:50:14.184Z,62.60
2018-03-21T07:52:41.934Z,60.83
2018-03-21T07:55:09.391Z,61.02
2018-03-21T07:57:38.779Z,60.34
2018-03-21T08:00:06.642Z,59.96
2018-03-21T08:02:34.093Z,60.64
2018-03-21T08:05:01.640Z,61.32
2018-03-21T08:07:29.777Z,61.36
2018-03-21T08:09:57.245Z,61.29
2018-03-21T08:12:24.720Z,61.71
2018-03-21T08:14:52.460Z,59.66
2018-03-21T08:17:19.920Z,60.35
2018-03-21T08:19:47.384Z,58.50
2018-03-21T08:22:15.666Z,56.51
2018-03-21T08:24:43.123Z,59.20
2018-03-21T08:27:10.579Z,61.39
2018-03-21T08:29:38.456Z,59.54
2018-03-21T08:32:05.933Z,58.48
2018-03-21T08:34:33.384Z,58.81
2018-03-21T08:37:01.130Z,60.37
2018-03-21T08:39:28.591Z,59.40
2018-03-21T08:41:56.065Z,61.19
2018-03-21T08:44:23.833Z,62.16
2018-03-21T08:46:51.286Z,62.49
2018-03-21T08:49:18.748Z,62.75
2018-03-21T08:51:46.493Z,62.58
2018-03-21T08:54:13.952Z,64.26
2018-03-21T08:56:41.441Z,64.10
2018-03-21T08:59:09.550Z,65.31
2018-03-21T09:01:37.006Z,65.29
2018-03-21T09:04:04.470Z,64.73
2018-03-21T09:06:32.205Z,61.86
2018-03-21T09:08:59.660Z,63.06
2018-03-21T09:11:27.120Z,60.80
2018-03-21T09:13:54.881Z,59.61
2018-03-21T09:16:22.339Z,56.84
2018-03-21T09:18:49.809Z,58.73
2018-03-21T09:21:17.557Z,61.77
2018-03-21T09:23:45.029Z,59.51
2018-03-21T09:26:12.498Z,58.07
2018-03-21T09:28:40.561Z,60.28
2018-03-21T09:31:08.023Z,57.54
2018-03-21T09:33:35.478Z,54.45
2018-03-21T09:36:03.255Z,57.95
2018-03-21T09:38:30.718Z,58.22
2018-03-21T09:40:58.178Z,58.41
2018-03-21T09:43:25.932Z,56.20
2018-03-21T09:45:53.393Z,58.73
2018-03-21T09:48:20.859Z,58.47
2018-03-21T09:50:48.932Z,56.75
2018-03-21T09:53:16.433Z,58.28
2018-03-21T09:55:43.897Z,61.58
2018-03-21T09:58:11.611Z,61.93
2018-03-21T10:00:39.583Z,62.38
2018-03-21T10:03:07.061Z,61.86
2018-03-21T10:05:34.917Z,62.17
2018-03-21T10:08:02.370Z,59.95
2018-03-21T10:10:29.881Z,59.71
2018-03-21T10:12:57.594Z,61.49
2018-03-21T10:15:25.057Z,58.18
2018-03-21T10:17:52.525Z,56.93
2018-03-21T10:20:20.295Z,56.94
2018-03-21T10:22:47.752Z,57.23
2018-03-21T10:25:15.229Z,55.65
2018-03-21T10:27:42.973Z,56.67
2018-03-21T10:30:10.430Z,56.02
2018-03-21T10:32:37.898Z,56.35
2018-03-21T10:35:05.674Z,53.62
2018-03-21T10:37:33.144Z,52.96
2018-03-21T10:40:00.605Z,52.69
2018-03-21T10:42:29.264Z,54.89
2018-03-21T10:44:56.794Z,52.89
2018-03-21T10:47:24.210Z,51.92
2018-03-21T10:49:51.966Z,56.66
2018-03-21T10:52:19.424Z,54.89
2018-03-21T10:54:46.892Z,53.93
2018-03-21T10:57:14.626Z,55.09
2018-03-21T10:59:42.084Z,55.10
2018-03-21T11:02:14.821Z,55.17
2018-03-21T11:04:42.294Z,55.62
2018-03-21T11:07:09.760Z,55.46
2018-03-21T11:09:38.080Z,52.58
2018-03-21T11:12:05.542Z,52.69
2018-03-21T11:14:33.013Z,52.30
2018-03-21T11:17:00.739Z,51.14
2018-03-21T11:19:28.197Z,52.66
2018-03-21T11:21:55.671Z,51.62
2018-03-21T11:24:23.340Z,52.33
2018-03-21T11:26:50.805Z,50.87
2018-03-21T11:29:18.272Z,48.81
2018-03-21T11:31:46.457Z,51.61
2018-03-21T11:34:13.914Z,50.40
2018-03-21T11:36:41.384Z,49.94
2018-03-21T11:39:09.475Z,50.33
2018-03-21T11:41:36.937Z,49.30
2018-03-21T11:44:04.460Z,48.05
2018-03-21T11:46:32.191Z,48.70
2018-03-21T11:48:59.677Z,49.69
2018-03-21T11:51:27.157Z,50.62
2018-03-21T11:53:55.093Z,50.81
2018-03-21T11:56:22.563Z,50.63
2018-03-21T11:58:50.045Z,49.76
2018-03-21T12:01:19.348Z,49.02
2018-03-21T12:03:47.206Z,52.89
2018-03-21T12:06:14.674Z,51.43
2018-03-21T12:08:42.789Z,48.35
2018-03-21T12:11:10.136Z,50.10
2018-03-21T12:13:37.610Z,50.36
2018-03-21T12:16:05.666Z,50.42
2018-03-21T12:18:33.144Z,50.04
2018-03-21T12:21:00.616Z,49.64
2018-03-21T12:23:28.337Z,47.31
2018-03-21T12:25:55.792Z,48.73
2018-03-21T12:28:23.253Z,46.45
2018-03-21T12:30:51.343Z,43.81
2018-03-21T12:33:18.807Z,38.60
2018-03-21T12:35:46.279Z,36.92
2018-03-21T12:38:14.057Z,38.14
2018-03-21T12:40:41.491Z,35.70
2018-03-21T12:43:08.968Z,33.06
2018-03-21T12:45:36.716Z,37.25
2018-03-21T12:48:04.182Z,36.70
2018-03-21T12:50:31.642Z,36.23
2018-03-21T12:52:59.397Z,39.41
2018-03-21T12:55:26.857Z,36.59
2018-03-21T12:57:54.322Z,37.89
2018-03-21T13:00:22.075Z,37.71
2018-03-21T13:02:49.531Z,37.05
2018-03-21T13:05:17.683Z,36.13
2018-03-21T13:07:45.494Z,36.47
2018-03-21T13:10:12.921Z,35.48
2018-03-21T13:12:40.377Z,32.11
2018-03-21T13:15:08.369Z,33.58
2018-03-21T13:17:35.821Z,36.97
2018-03-21T13:20:03.277Z,37.84
2018-03-21T13:22:31.063Z,36.84
2018-03-21T13:24:58.517Z,32.67
2018-03-21T13:27:26.481Z,33.36
2018-03-21T13:29:54.373Z,32.32
2018-03-21T13:32:21.847Z,35.40
2018-03-21T13:34:49.302Z,35.19
2018-03-21T13:37:17.059Z,35.68
2018-03-21T13:39:44.526Z,36.47
2018-03-21T13:42:11.988Z,34.90
2018-03-21T13:44:40.042Z,33.73
2018-03-21T13:47:07.558Z,32.02
2018-03-21T13:49:34.978Z,31.17
2018-03-21T13:52:02.781Z,28.36
2018-03-21T13:54:30.242Z,30.42
2018-03-21T13:56:59.077Z,30.10
2018-03-21T13:59:26.964Z,29.23
2018-03-21T14:01:54.434Z,29.79
2018-03-21T14:04:21.893Z,30.22
2018-03-21T14:06:50.189Z,29.20
2018-03-21T14:09:17.658Z,28.06
2018-03-21T14:11:45.128Z,29.81
2018-03-21T14:14:12.941Z,30.34
2018-03-21T14:16:40.402Z,30.20
2018-03-21T14:19:07.880Z,29.87
2018-03-21T14:21:35.628Z,27.48
2018-03-21T14:24:03.079Z,27.66
2018-03-21T14:26:30.521Z,27.66
2018-03-21T14:28:58.329Z,26.63
2018-03-21T14:31:25.785Z,28.60
2018-03-21T14:33:53.680Z,30.75
2018-03-21T14:36:21.619Z,30.65
2018-03-21T14:38:49.063Z,31.74
2018-03-21T14:41:16.522Z,31.05
2018-03-21T14:43:44.312Z,29.80
2018-03-21T14:46:11.763Z,28.08
2018-03-21T14:48:39.222Z,27.41
2018-03-21T14:51:06.994Z,28.30
2018-03-21T14:53:34.466Z,25.17
2018-03-21T14:56:01.935Z,27.20
2018-03-21T14:58:29.678Z,27.27
2018-03-21T15:00:57.154Z,26.53
2018-03-21T15:03:24.607Z,28.81
2018-03-21T15:05:52.682Z,27.18
2018-03-21T15:08:20.513Z,27.37
2018-03-21T15:10:47.962Z,27.10
2018-03-21T15:13:15.682Z,29.75
2018-03-21T15:15:43.138Z,30.58
2018-03-21T15:18:10.593Z,31.85
2018-03-21T15:20:38.353Z,31.08
2018-03-21T15:23:05.817Z,29.98
2018-03-21T15:25:33.277Z,30.26
2018-03-21T15:28:01.069Z,28.55
2018-03-21T15:30:28.517Z,28.89
2018-03-21T15:32:56.001Z,27.48
2018-03-21T15:35:23.730Z,26.70
2018-03-21T15:37:51.183Z,27.57
2018-03-21T15:40:18.646Z,25.93
2018-03-21T15:42:46.418Z,25.80
2018-03-21T15:45:13.903Z,29.33
2018-03-21T15:47:41.344Z,28.88
2018-03-21T15:50:09.129Z,28.62
2018-03-21T15:52:36.586Z,28.91
2018-03-21T15:55:04.045Z,28.29
2018-03-21T15:57:31.651Z,26.63
2018-03-21T15:59:59.105Z,25.50
2018-03-21T16:02:26.552Z,27.06
2018-03-21T16:04:54.481Z,27.73
2018-03-21T16:07:21.957Z,27.11
2018-03-21T16:09:49.781Z,27.66
2018-03-21T16:12:17.795Z,29.03
2018-03-21T16:14:45.253Z,31.32
2018-03-21T16:17:12.749Z,31.09
2018-03-21T16:19:40.559Z,31.18
2018-03-21T16:22:08.012Z,31.71
2018-03-21T16:24:35.478Z,30.39
2018-03-21T16:27:03.285Z,29.61
2018-03-21T16:29:30.751Z,31.16
2018-03-21T16:31:58.205Z,31.33
2018-03-21T16:34:26.159Z,32.15
2018-03-21T16:36:53.643Z,32.47
2018-03-21T16:39:21.103Z,32.42
2018-03-21T16:41:48.833Z,31.18
2018-03-21T16:44:16.302Z,31.55
2018-03-21T16:46:43.765Z,31.36
2018-03-21T16:49:11.533Z,31.04
2018-03-21T16:51:38.993Z,32.18
2018-03-21T16:54:06.462Z,32.06
2018-03-21T16:56:34.218Z,32.05
2018-03-21T16:59:01.722Z,33.35
2018-03-21T17:01:29.187Z,33.42
2018-03-21T17:03:57.023Z,33.22
2018-03-21T17:06:24.473Z,32.82
2018-03-21T17:08:51.946Z,32.71
2018-03-21T17:11:20.516Z,32.98
2018-03-21T17:13:47.972Z,33.13
2018-03-21T17:16:15.453Z,32.86
2018-03-21T17:18:43.215Z,33.22
2018-03-21T17:21:10.813Z,33.75
2018-03-21T17:23:38.267Z,33.55
2018-03-21T17:26:06.239Z,34.60
2018-03-21T17:28:33.701Z,34.10
2018-03-21T17:31:01.175Z,34.42
2018-03-21T17:33:28.895Z,34.49
2018-03-21T17:35:56.344Z,35.07
2018-03-21T17:38:23.801Z,36.71
2018-03-21T17:40:51.565Z,35.85
2018-03-21T17:43:19.017Z,36.30
2018-03-21T17:45:46.470Z,38.19
2018-03-21T17:48:14.572Z,37.91
2018-03-21T17:50:42.021Z,39.13
2018-03-21T17:53:09.471Z,37.88
2018-03-21T17:55:37.316Z,37.86
2018-03-21T17:58:04.808Z,38.24
2018-03-21T18:00:32.342Z,39.35
2018-03-21T18:03:00.207Z,41.94
2018-03-21T18:05:27.679Z,40.38
2018-03-21T18:07:55.137Z,40.21
2018-03-21T18:10:22.949Z,40.97
2018-03-21T18:12:51.998Z,41.02
2018-03-21T18:15:19.446Z,41.58
2018-03-21T18:17:47.162Z,41.24
2018-03-21T18:20:15.472Z,42.10
2018-03-21T18:22:42.944Z,42.56
2018-03-21T18:25:11.345Z,42.84
2018-03-21T18:27:38.853Z,43.77
2018-03-21T18:30:06.368Z,42.72
2018-03-21T18:32:34.701Z,42.84
2018-03-21T18:35:02.257Z,43.11
2018-03-21T18:37:29.712Z,44.28
2018-03-21T18:39:57.682Z,44.65
2018-03-21T18:42:25.138Z,44.88
2018-03-21T18:44:52.599Z,45.22
2018-03-21T18:47:20.210Z,45.22
2018-03-21T18:49:47.677Z,44.46
2018-03-21T18:52:15.125Z,43.88
2018-03-21T18:54:42.865Z,44.86
2018-03-21T18:57:10.318Z,45.01
2018-03-21T18:59:38.524Z,44.46
2018-03-21T19:02:06.360Z,45.54
2018-03-21T19:04:33.854Z,45.08
2018-03-21T19:07:01.355Z,45.67
2018-03-21T19:09:29.357Z,44.57
2018-03-21T19:11:56.879Z,45.41
2018-03-21T19:14:25.091Z,48.22
2018-03-21T19:16:52.691Z,48.40
2018-03-21T19:19:20.296Z,46.97
2018-03-21T19:21:47.797Z,47.10
2018-03-21T19:24:15.656Z,47.18
2018-03-21T19:26:43.142Z,47.77
2018-03-21T19:29:10.636Z,50.02
2018-03-21T19:31:38.485Z,48.56
2018-03-21T19:34:05.955Z,47.57
2018-03-21T19:36:33.417Z,47.22
2018-03-21T19:39:01.321Z,48.96
2018-03-21T19:41:28.814Z,49.08
2018-03-21T19:43:56.324Z,48.99
2018-03-21T19:46:26.058Z,48.75
2018-03-21T19:48:53.665Z,48.18
2018-03-21T19:51:21.210Z,49.88
2018-03-21T19:53:49.155Z,48.74
2018-03-21T19:56:16.652Z,47.73
2018-03-21T19:58:44.204Z,50.77
2018-03-21T20:01:12.058Z,48.54
2018-03-21T20:03:39.907Z,47.10
2018-03-21T20:06:07.740Z,51.57
2018-03-21T20:08:37.970Z,50.33
2018-03-21T20:11:05.609Z,49.78
2018-03-21T20:13:33.065Z,48.74
2018-03-21T20:16:01.269Z,47.44
2018-03-21T20:18:28.825Z,49.50
2018-03-21T20:20:56.308Z,50.69
2018-03-21T20:23:24.164Z,47.94
2018-03-21T20:25:51.634Z,51.18
2018-03-21T20:28:19.084Z,49.10
2018-03-21T20:30:46.893Z,49.17
2018-03-21T20:33:14.357Z,48.06
2018-03-21T20:35:41.826Z,50.66
2018-03-21T20:38:09.865Z,50.37
2018-03-21T20:40:37.329Z,51.36
2018-03-21T20:43:05.388Z,53.98
2018-03-21T20:45:33.181Z,53.99
2018-03-21T20:48:00.668Z,52.17
2018-03-21T20:50:28.131Z,49.43
2018-03-21T20:52:55.980Z,50.03
2018-03-21T20:55:23.474Z,50.05
2018-03-21T20:57:50.947Z,51.31
2018-03-21T21:00:18.869Z,50.04
2018-03-21T21:02:46.335Z,49.45
2018-03-21T21:05:13.894Z,50.82
2018-03-21T21:07:41.832Z,50.96
2018-03-21T21:10:09.285Z,51.20
2018-03-21T21:12:36.748Z,50.47
2018-03-21T21:15:04.854Z,49.28
2018-03-21T21:17:33.929Z,47.76
2018-03-21T21:20:01.397Z,48.35
2018-03-21T21:22:29.156Z,51.29
2018-03-21T21:24:56.624Z,49.95
2018-03-21T21:27:24.092Z,49.52
2018-03-21T21:29:51.771Z,51.40
2018-03-21T21:32:19.236Z,52.29
2018-03-21T21:34:46.691Z,52.66
2018-03-21T21:37:15.069Z,52.44
2018-03-21T21:39:42.526Z,52.79
2018-03-21T21:42:10.036Z,53.47
2018-03-21T21:44:38.369Z,55.17
2018-03-21T21:47:05.824Z,54.04
2018-03-21T21:49:33.277Z,56.00
2018-03-21T21:52:01.094Z,56.95
2018-03-21T21:54:28.540Z,58.17
2018-03-21T21:56:55.998Z,57.98
2018-03-21T21:59:23.742Z,58.02
2018-03-21T22:01:51.209Z,59.02
2018-03-21T22:04:18.662Z,59.61
2018-03-21T22:06:46.420Z,60.06
2018-03-21T22:09:13.886Z,60.58
2018-03-21T22:11:42.212Z,61.06
2018-03-21T22:14:10.043Z,60.67
2018-03-21T22:16:37.501Z,61.16
2018-03-21T22:19:05.656Z,62.33
2018-03-21T22:21:33.959Z,63.59
2018-03-21T22:24:01.435Z,63.93
2018-03-21T22:26:28.921Z,63.31
2018-03-21T22:28:56.641Z,62.08
2018-03-21T22:31:24.114Z,61.87
2018-03-21T22:33:51.611Z,62.31
2018-03-21T22:36:19.342Z,63.03
2018-03-21T22:38:46.814Z,63.20
2018-03-21T22:41:14.265Z,62.13
2018-03-21T22:43:42.021Z,63.03
2018-03-21T22:46:09.479Z,63.91
2018-03-21T22:48:36.932Z,61.62
2018-03-21T22:51:04.707Z,63.83
2018-03-21T22:53:32.170Z,63.19
2018-03-21T22:55:59.648Z,61.85
2018-03-21T22:58:27.351Z,62.02
2018-03-21T23:00:54.815Z,63.42
2018-03-21T23:03:22.276Z,62.11
2018-03-21T23:05:50.387Z,61.69
2018-03-21T23:08:17.865Z,63.15
2018-03-21T23:10:45.332Z,64.04
2018-03-21T23:13:13.072Z,64.21
2018-03-21T23:15:40.529Z,63.62
2018-03-21T23:18:07.999Z,63.44
2018-03-21T23:20:36.073Z,64.00
2018-03-21T23:23:03.538Z,64.95
2018-03-21T23:25:30.992Z,64.17
2018-03-21T23:27:58.746Z,63.63
2018-03-21T23:30:26.207Z,62.14
2018-03-21T23:32:53.669Z,64.61
2018-03-21T23:35:21.443Z,66.93
2018-03-21T23:37:48.913Z,67.10
2018-03-21T23:40:16.380Z,64.40
2018-03-21T23:42:44.139Z,67.17
2018-03-21T23:45:11.618Z,64.46
2018-03-21T23:47:39.089Z,64.40
2018-03-21T23:50:06.825Z,65.41
2018-03-21T23:52:34.308Z,64.95
2018-03-21T23:55:01.782Z,64.22
2018-03-21T23:57:29.519Z,65.18
2018-03-21T23:59:56.985Z,64.11
